createdAt,value
2017-02-11T00:00:44.617Z,0.98
2017-02-11T00:01:44.596Z,1.04
2017-02-11T00:02:44.576Z,1.04
2017-02-11T00:03:44.545Z,1.04
2017-02-11T00:04:44.541Z,1.04
2017-02-11T00:05:44.503Z,0.98
2017-02-11T00:06:44.476Z,1.04
2017-02-11T00:07:44.459Z,1.08
2017-02-11T00:08:44.435Z,1.08
2017-02-11T00:09:44.411Z,1.07
2017-02-11T00:10:44.439Z,1.04
2017-02-11T00:11:44.365Z,1.06
2017-02-11T00:12:44.358Z,1.1
2017-02-11T00:13:44.317Z,1.03
2017-02-11T00:14:44.302Z,1.15
2017-02-11T00:15:44.273Z,1.1
2017-02-11T00:16:44.245Z,1.19
2017-02-11T00:17:44.235Z,1.12
2017-02-11T00:18:44.198Z,1.14
2017-02-11T00:19:43.782Z,1.14
2017-02-11T00:20:44.155Z,1.12
2017-02-11T00:21:44.333Z,1.12
2017-02-11T00:22:44.114Z,1.12
2017-02-11T00:23:43.297Z,1.16
2017-02-11T00:24:44.064Z,1.18
2017-02-11T00:25:43.646Z,1.18
2017-02-11T00:26:44.067Z,1.18
2017-02-11T00:27:43.999Z,1.24
2017-02-11T00:28:43.970Z,1.16
2017-02-11T00:29:43.951Z,1.16
2017-02-11T00:30:43.930Z,1.18
2017-02-11T00:31:43.900Z,1.22
2017-02-11T00:32:43.900Z,1.24
2017-02-11T00:33:43.856Z,1.16
2017-02-11T00:34:43.834Z,1.16
2017-02-11T00:35:43.840Z,1.19
2017-02-11T00:36:43.393Z,1.21
2017-02-11T00:37:43.773Z,1.19
2017-02-11T00:38:43.742Z,1.26
2017-02-11T00:39:43.724Z,1.19
2017-02-11T00:40:43.698Z,1.22
2017-02-11T00:41:43.679Z,1.24
2017-02-11T00:42:43.252Z,1.24
2017-02-11T00:43:43.232Z,1.22
2017-02-11T00:44:43.605Z,1.19
2017-02-11T00:45:43.585Z,1.25
2017-02-11T00:46:43.557Z,1.21
2017-02-11T00:47:43.589Z,1.18
2017-02-11T00:48:43.515Z,1.26
2017-02-11T00:49:43.486Z,1.19
2017-02-11T00:50:43.075Z,1.22
2017-02-11T00:51:43.441Z,1.19
2017-02-11T00:52:43.422Z,1.22
2017-02-11T00:53:43.409Z,1.25
2017-02-11T00:54:42.990Z,1.19
2017-02-11T00:55:43.353Z,1.12
2017-02-11T00:56:43.334Z,1.19
2017-02-11T00:57:43.308Z,1.19
2017-02-11T00:58:43.285Z,1.19
2017-02-11T00:59:43.261Z,1.16
2017-02-11T01:00:43.239Z,1.25
2017-02-11T01:01:43.216Z,1.25
2017-02-11T01:02:43.190Z,1.18
2017-02-11T01:03:43.165Z,1.16
2017-02-11T01:04:43.164Z,1.14
2017-02-11T01:05:43.121Z,1.19
2017-02-11T01:06:43.100Z,1.25
2017-02-11T01:07:43.072Z,1.18
2017-02-11T01:08:43.050Z,1.15
2017-02-11T01:09:43.031Z,1.22
2017-02-11T01:10:43.010Z,1.18
2017-02-11T01:11:42.594Z,1.21
2017-02-11T01:12:42.966Z,1.26
2017-02-11T01:13:42.950Z,1.19
2017-02-11T01:14:42.929Z,1.21
2017-02-11T01:15:42.898Z,1.24
2017-02-11T01:16:42.877Z,1.16
2017-02-11T01:17:42.855Z,1.19
2017-02-11T01:18:42.824Z,1.22
2017-02-11T01:19:42.811Z,1.22
2017-02-11T01:20:42.382Z,1.22
2017-02-11T01:21:42.759Z,1.24
2017-02-11T01:22:42.732Z,1.19
2017-02-11T01:23:42.716Z,1.21
2017-02-11T01:24:42.691Z,1.25
2017-02-11T01:25:42.661Z,1.18
2017-02-11T01:26:42.642Z,1.19
2017-02-11T01:27:42.221Z,1.19
2017-02-11T01:28:42.593Z,1.22
2017-02-11T01:29:42.569Z,1.12
2017-02-11T01:30:42.548Z,1.21
2017-02-11T01:31:42.526Z,1.21
2017-02-11T01:32:42.502Z,1.18
2017-02-11T01:33:42.508Z,1.18
2017-02-11T01:34:42.454Z,1.22
2017-02-11T01:35:42.434Z,1.22
2017-02-11T01:36:42.435Z,1.18
2017-02-11T01:37:42.387Z,1.18
2017-02-11T01:38:42.394Z,1.21
2017-02-11T01:39:42.341Z,1.28
2017-02-11T01:40:42.321Z,1.28
2017-02-11T01:41:42.296Z,1.21
2017-02-11T01:42:42.270Z,1.28
2017-02-11T01:43:42.249Z,1.22
2017-02-11T01:44:42.228Z,1.25
2017-02-11T01:45:42.200Z,1.25
2017-02-11T01:46:42.187Z,1.26
2017-02-11T01:47:42.157Z,1.14
2017-02-11T01:48:41.749Z,1.15
2017-02-11T01:49:42.110Z,1.15
2017-02-11T01:50:42.140Z,1.16
2017-02-11T01:51:42.065Z,1.32
2017-02-11T01:52:42.061Z,1.28
2017-02-11T01:53:42.028Z,1.18
2017-02-11T01:54:42.006Z,1.32
2017-02-11T01:55:41.980Z,1.28
2017-02-11T01:56:42.001Z,1.18
2017-02-11T01:57:41.929Z,1.32
2017-02-11T01:58:41.916Z,1.33
2017-02-11T01:59:41.882Z,1.28
2017-02-11T02:00:41.862Z,1.36
2017-02-11T02:01:41.841Z,1.25
2017-02-11T02:02:41.825Z,1.36
2017-02-11T02:03:41.793Z,1.25
2017-02-11T02:04:41.771Z,1.32
2017-02-11T02:05:41.794Z,1.33
2017-02-11T02:06:41.725Z,1.34
2017-02-11T02:07:41.704Z,1.26
2017-02-11T02:08:41.676Z,1.32
2017-02-11T02:09:41.657Z,1.34
2017-02-11T02:10:41.633Z,1.29
2017-02-11T02:11:41.608Z,1.36
2017-02-11T02:12:41.587Z,1.32
2017-02-11T02:13:41.567Z,1.33
2017-02-11T02:14:41.539Z,1.29
2017-02-11T02:15:41.522Z,1.42
2017-02-11T02:16:41.501Z,1.36
2017-02-11T02:17:41.470Z,1.34
2017-02-11T02:18:41.453Z,1.4
2017-02-11T02:19:41.428Z,1.44
2017-02-11T02:20:41.403Z,1.37
2017-02-11T02:21:41.593Z,1.33
2017-02-11T02:22:41.356Z,1.33
2017-02-11T02:23:41.338Z,1.37
2017-02-11T02:24:41.318Z,1.37
2017-02-11T02:25:41.298Z,1.37
2017-02-11T02:26:41.265Z,1.4
2017-02-11T02:27:41.249Z,1.37
2017-02-11T02:28:41.222Z,1.36
2017-02-11T02:29:41.214Z,1.36
2017-02-11T02:30:41.180Z,1.36
2017-02-11T02:31:41.165Z,1.34
2017-02-11T02:32:41.131Z,1.36
2017-02-11T02:33:40.724Z,1.42
2017-02-11T02:34:41.081Z,1.37
2017-02-11T02:35:41.119Z,1.33
2017-02-11T02:36:41.035Z,1.32
2017-02-11T02:37:41.051Z,1.36
2017-02-11T02:38:40.998Z,1.34
2017-02-11T02:39:40.969Z,1.33
2017-02-11T02:40:40.946Z,1.36
2017-02-11T02:41:40.923Z,1.4
2017-02-11T02:42:40.512Z,1.39
2017-02-11T02:43:40.876Z,1.34
2017-02-11T02:44:40.854Z,1.39
2017-02-11T02:45:40.831Z,1.32
2017-02-11T02:46:40.812Z,1.39
2017-02-11T02:47:40.787Z,1.39
2017-02-11T02:48:40.814Z,1.33
2017-02-11T02:49:40.748Z,1.32
2017-02-11T02:50:40.773Z,1.34
2017-02-11T02:51:40.693Z,1.42
2017-02-11T02:52:40.681Z,1.29
2017-02-11T02:53:40.656Z,1.39
2017-02-11T02:54:40.625Z,1.4
2017-02-11T02:55:40.611Z,1.4
2017-02-11T02:56:40.582Z,1.34
2017-02-11T02:57:40.562Z,1.37
2017-02-11T02:58:40.540Z,1.33
2017-02-11T02:59:40.515Z,1.39
2017-02-11T03:00:40.493Z,1.39
2017-02-11T03:01:40.476Z,1.36
2017-02-11T03:02:40.448Z,1.33
2017-02-11T03:03:40.431Z,1.4
2017-02-11T03:04:40.399Z,1.4
2017-02-11T03:05:40.380Z,1.39
2017-02-11T03:06:40.389Z,1.39
2017-02-11T03:07:40.337Z,1.34
2017-02-11T03:08:40.321Z,1.33
2017-02-11T03:09:40.286Z,1.42
2017-02-11T03:10:40.266Z,1.4
2017-02-11T03:11:40.241Z,1.37
2017-02-11T03:12:40.216Z,1.28
2017-02-11T03:13:40.202Z,1.36
2017-02-11T03:14:40.171Z,1.28
2017-02-11T03:15:40.157Z,1.18
2017-02-11T03:16:40.127Z,1.25
2017-02-11T03:17:40.105Z,1.25
2017-02-11T03:18:39.694Z,1.21
2017-02-11T03:19:40.058Z,1.15
2017-02-11T03:20:40.038Z,1.07
2017-02-11T03:21:40.010Z,1.01
2017-02-11T03:22:39.598Z,1.1
2017-02-11T03:23:39.966Z,1.04
2017-02-11T03:24:39.941Z,0.96
2017-02-11T03:25:39.920Z,0.88
2017-02-11T03:26:39.897Z,0.89
2017-02-11T03:27:39.899Z,0.92
2017-02-11T03:28:39.851Z,0.85
2017-02-11T03:29:39.832Z,0.83
2017-02-11T03:30:39.809Z,0.85
2017-02-11T03:31:39.784Z,0.88
2017-02-11T03:32:39.755Z,0.83
2017-02-11T03:33:39.735Z,0.8
2017-02-11T03:34:39.715Z,0.86
2017-02-11T03:35:39.688Z,0.78
2017-02-11T03:36:39.673Z,0.83
2017-02-11T03:37:39.644Z,0.86
2017-02-11T03:38:39.625Z,0.8
2017-02-11T03:39:39.602Z,0.85
2017-02-11T03:40:39.578Z,0.97
2017-02-11T03:41:39.607Z,0.79
2017-02-11T03:42:39.526Z,0.89
2017-02-11T03:43:39.512Z,0.79
2017-02-11T03:44:39.536Z,0.79
2017-02-11T03:45:39.459Z,0.85
2017-02-11T03:46:39.435Z,0.85
2017-02-11T03:47:39.418Z,0.85
2017-02-11T03:48:39.394Z,0.89
2017-02-11T03:49:39.369Z,0.94
2017-02-11T03:50:39.350Z,0.83
2017-02-11T03:51:39.328Z,0.97
2017-02-11T03:52:39.292Z,0.92
2017-02-11T03:53:39.279Z,1
2017-02-11T03:54:39.246Z,0.89
2017-02-11T03:55:39.226Z,0.85
2017-02-11T03:56:39.210Z,0.89
2017-02-11T03:57:39.183Z,0.92
2017-02-11T03:58:39.161Z,0.92
2017-02-11T03:59:39.136Z,0.96
2017-02-11T04:00:39.111Z,0.92
2017-02-11T04:01:39.140Z,1.03
2017-02-11T04:02:39.065Z,1.06
2017-02-11T04:03:39.041Z,0.96
2017-02-11T04:04:39.026Z,1.06
2017-02-11T04:05:38.999Z,1.04
2017-02-11T04:06:38.977Z,0.98
2017-02-11T04:07:38.945Z,0.98
2017-02-11T04:08:38.924Z,1.04
2017-02-11T04:09:38.907Z,1.08
2017-02-11T04:10:38.881Z,1.06
2017-02-11T04:11:38.861Z,1.07
2017-02-11T04:12:38.835Z,1.06
2017-02-11T04:13:38.817Z,1.01
2017-02-11T04:14:38.782Z,1.04
2017-02-11T04:15:38.765Z,1.08
2017-02-11T04:16:38.750Z,1.06
2017-02-11T04:17:38.722Z,1.03
2017-02-11T04:18:38.698Z,1.03
2017-02-11T04:19:38.277Z,1.04
2017-02-11T04:20:38.650Z,1.08
2017-02-11T04:21:38.880Z,1.06
2017-02-11T04:22:38.604Z,1.08
2017-02-11T04:23:38.185Z,1.03
2017-02-11T04:24:38.559Z,1.06
2017-02-11T04:25:38.531Z,1.07
2017-02-11T04:26:38.517Z,1.07
2017-02-11T04:27:38.090Z,1.04
2017-02-11T04:28:38.467Z,1.04
2017-02-11T04:29:38.444Z,1.08
2017-02-11T04:30:38.426Z,1.03
2017-02-11T04:31:37.997Z,1.04
2017-02-11T04:32:38.375Z,1.04
2017-02-11T04:33:38.393Z,1.06
2017-02-11T04:34:38.325Z,1.04
2017-02-11T04:35:38.302Z,1.12
2017-02-11T04:36:38.330Z,1.07
2017-02-11T04:37:38.257Z,1.16
2017-02-11T04:38:38.288Z,1.08
2017-02-11T04:39:38.208Z,1.06
2017-02-11T04:40:38.213Z,1.04
2017-02-11T04:41:38.168Z,1.08
2017-02-11T04:42:38.143Z,1.14
2017-02-11T04:43:38.124Z,1.03
2017-02-11T04:44:37.694Z,1.04
2017-02-11T04:45:38.073Z,1.16
2017-02-11T04:46:38.048Z,1.14
2017-02-11T04:47:38.029Z,1.12
2017-02-11T04:48:38.010Z,1.1
2017-02-11T04:49:37.977Z,1.14
2017-02-11T04:50:37.997Z,1.12
2017-02-11T04:51:37.985Z,1.12
2017-02-11T04:52:37.927Z,1.15
2017-02-11T04:53:37.940Z,1.18
2017-02-11T04:54:37.867Z,1.12
2017-02-11T04:55:37.841Z,1.16
2017-02-11T04:56:37.831Z,1.14
2017-02-11T04:57:37.799Z,1.16
2017-02-11T04:58:37.778Z,1.16
2017-02-11T04:59:37.750Z,1.12
2017-02-11T05:00:37.330Z,1.16
2017-02-11T05:01:37.714Z,1.12
2017-02-11T05:02:37.283Z,1.16
2017-02-11T05:03:37.756Z,1.15
2017-02-11T05:04:37.635Z,1.16
2017-02-11T05:05:37.609Z,1.19
2017-02-11T05:06:37.637Z,1.15
2017-02-11T05:07:37.564Z,1.14
2017-02-11T05:08:37.546Z,1.16
2017-02-11T05:09:37.526Z,1.18
2017-02-11T05:10:37.501Z,1.16
2017-02-11T05:11:37.077Z,1.18
2017-02-11T05:12:37.060Z,1.19
2017-02-11T05:13:37.433Z,1.16
2017-02-11T05:14:37.023Z,1.15
2017-02-11T05:15:37.389Z,1.18
2017-02-11T05:16:37.370Z,1.19
2017-02-11T05:17:37.340Z,1.16
2017-02-11T05:18:36.915Z,1.12
2017-02-11T05:19:37.299Z,1.24
2017-02-11T05:20:37.265Z,1.16
2017-02-11T05:21:37.240Z,1.21
2017-02-11T05:22:36.823Z,1.21
2017-02-11T05:23:37.199Z,1.19
2017-02-11T05:24:37.175Z,1.16
2017-02-11T05:25:37.150Z,1.22
2017-02-11T05:26:37.128Z,1.16
2017-02-11T05:27:37.122Z,1.16
2017-02-11T05:28:37.085Z,1.18
2017-02-11T05:29:37.082Z,1.12
2017-02-11T05:30:37.083Z,1.15
2017-02-11T05:31:37.010Z,1.15
2017-02-11T05:32:37.036Z,1.15
2017-02-11T05:33:36.961Z,1.1
2017-02-11T05:34:36.947Z,1.07
2017-02-11T05:35:36.919Z,1.06
2017-02-11T05:36:36.893Z,1.08
2017-02-11T05:37:36.883Z,1.06
2017-02-11T05:38:36.854Z,1.03
2017-02-11T05:39:36.430Z,1.03
2017-02-11T05:40:36.800Z,1.18
2017-02-11T05:41:36.782Z,1.08
2017-02-11T05:42:36.758Z,1.15
2017-02-11T05:43:36.734Z,1.04
2017-02-11T05:44:36.710Z,1.01
2017-02-11T05:45:36.687Z,1.08
2017-02-11T05:46:36.669Z,1.06
2017-02-11T05:47:36.643Z,1.01
2017-02-11T05:48:36.627Z,1.04
2017-02-11T05:49:36.644Z,1.12
2017-02-11T05:50:36.575Z,1.08
2017-02-11T05:51:36.551Z,0.98
2017-02-11T05:52:36.527Z,0.98
2017-02-11T05:53:36.503Z,0.97
2017-02-11T05:54:36.493Z,1.14
2017-02-11T05:55:36.457Z,1.1
2017-02-11T05:56:36.434Z,1.01
2017-02-11T05:57:36.415Z,1.07
2017-02-11T05:58:36.419Z,1.01
2017-02-11T05:59:36.380Z,1.06
2017-02-11T06:00:36.354Z,0.98
2017-02-11T06:01:36.318Z,1.03
2017-02-11T06:02:36.298Z,1.03
2017-02-11T06:03:36.278Z,1.12
2017-02-11T06:04:36.254Z,1.1
2017-02-11T06:05:36.223Z,0.98
2017-02-11T06:06:36.199Z,1.1
2017-02-11T06:07:36.176Z,1.03
2017-02-11T06:08:36.156Z,1.03
2017-02-11T06:09:36.132Z,1.06
2017-02-11T06:10:36.108Z,0.96
2017-02-11T06:11:36.089Z,0.96
2017-02-11T06:12:36.061Z,0.97
2017-02-11T06:13:36.040Z,0.97
2017-02-11T06:14:36.021Z,0.98
2017-02-11T06:15:35.991Z,1.03
2017-02-11T06:16:35.974Z,0.92
2017-02-11T06:17:35.953Z,0.94
2017-02-11T06:18:35.926Z,1.01
2017-02-11T06:19:35.899Z,1.03
2017-02-11T06:20:35.880Z,0.9
2017-02-11T06:21:35.857Z,0.88
2017-02-11T06:22:35.834Z,0.94
2017-02-11T06:23:35.812Z,0.98
2017-02-11T06:24:35.782Z,0.96
2017-02-11T06:25:35.766Z,1.03
2017-02-11T06:26:35.738Z,0.92
2017-02-11T06:27:35.719Z,1.04
2017-02-11T06:28:35.689Z,1.06
2017-02-11T06:29:35.277Z,0.96
2017-02-11T06:30:35.644Z,1.01
2017-02-11T06:31:35.620Z,1
2017-02-11T06:32:35.598Z,1
2017-02-11T06:33:35.576Z,1.04
2017-02-11T06:34:35.558Z,0.92
2017-02-11T06:35:35.529Z,1.01
2017-02-11T06:36:35.108Z,1.03
2017-02-11T06:37:35.483Z,1.01
2017-02-11T06:38:35.064Z,0.96
2017-02-11T06:39:35.434Z,0.98
2017-02-11T06:40:35.411Z,0.98
2017-02-11T06:41:35.387Z,0.97
2017-02-11T06:42:35.373Z,1
2017-02-11T06:43:35.347Z,0.98
2017-02-11T06:44:35.325Z,0.98
2017-02-11T06:45:35.298Z,1.01
2017-02-11T06:46:35.276Z,1.03
2017-02-11T06:47:35.259Z,0.96
2017-02-11T06:48:35.226Z,0.94
2017-02-11T06:49:35.200Z,0.98
2017-02-11T06:50:35.178Z,1.04
2017-02-11T06:51:34.363Z,1.07
2017-02-11T06:52:35.133Z,1.04
2017-02-11T06:53:35.111Z,1.08
2017-02-11T06:54:35.140Z,1.07
2017-02-11T06:55:35.063Z,1.07
2017-02-11T06:56:35.043Z,1.07
2017-02-11T06:57:35.015Z,1.1
2017-02-11T06:58:34.991Z,1.1
2017-02-11T06:59:34.974Z,1
2017-02-11T07:00:34.952Z,1.07
2017-02-11T07:01:34.925Z,0.98
2017-02-11T07:02:34.908Z,1.07
2017-02-11T07:03:34.880Z,1.04
2017-02-11T07:04:34.860Z,1.08
2017-02-11T07:05:34.830Z,1.03
2017-02-11T07:06:34.809Z,1.01
2017-02-11T07:07:34.784Z,1.07
2017-02-11T07:08:34.763Z,1.07
2017-02-11T07:09:34.737Z,1.1
2017-02-11T07:10:34.716Z,1.08
2017-02-11T07:11:34.691Z,1.08
2017-02-11T07:12:34.668Z,1.03
2017-02-11T07:13:34.697Z,1.01
2017-02-11T07:14:34.621Z,1.04
2017-02-11T07:15:34.595Z,1.06
2017-02-11T07:16:34.579Z,1.14
2017-02-11T07:17:34.554Z,1.12
2017-02-11T07:18:34.529Z,1.12
2017-02-11T07:19:34.512Z,1.14
2017-02-11T07:20:34.485Z,1.15
2017-02-11T07:21:34.462Z,1.14
2017-02-11T07:22:34.475Z,1.15
2017-02-11T07:23:34.418Z,1.15
2017-02-11T07:24:34.391Z,1.1
2017-02-11T07:25:34.365Z,1.18
2017-02-11T07:26:34.347Z,1.1
2017-02-11T07:27:34.332Z,1.16
2017-02-11T07:28:34.299Z,1.14
2017-02-11T07:29:34.278Z,1.16
2017-02-11T07:30:34.254Z,1.21
2017-02-11T07:31:33.870Z,1.19
2017-02-11T07:32:34.210Z,1.25
2017-02-11T07:33:34.186Z,1.24
2017-02-11T07:34:34.160Z,1.25
2017-02-11T07:35:33.744Z,1.19
2017-02-11T07:36:34.113Z,1.25
2017-02-11T07:37:34.090Z,1.25
2017-02-11T07:38:34.072Z,1.19
2017-02-11T07:39:34.073Z,1.19
2017-02-11T07:40:34.035Z,1.28
2017-02-11T07:41:33.999Z,1.26
2017-02-11T07:42:33.980Z,1.34
2017-02-11T07:43:33.965Z,1.15
2017-02-11T07:44:33.941Z,1.28
2017-02-11T07:45:33.955Z,1.33
2017-02-11T07:46:33.889Z,1.34
2017-02-11T07:47:33.868Z,1.18
2017-02-11T07:48:33.843Z,1.25
2017-02-11T07:49:33.428Z,1.33
2017-02-11T07:50:33.803Z,1.34
2017-02-11T07:51:33.774Z,1.33
2017-02-11T07:52:33.752Z,1.32
2017-02-11T07:53:33.724Z,1.32
2017-02-11T07:54:33.697Z,1.33
2017-02-11T07:55:33.676Z,1.34
2017-02-11T07:56:33.661Z,1.4
2017-02-11T07:57:33.237Z,1.39
2017-02-11T07:58:33.607Z,1.42
2017-02-11T07:59:33.587Z,1.32
2017-02-11T08:00:33.563Z,1.26
2017-02-11T08:01:33.546Z,1.34
2017-02-11T08:02:33.525Z,1.4
2017-02-11T08:03:33.506Z,1.37
2017-02-11T08:04:33.470Z,1.43
2017-02-11T08:05:33.449Z,1.36
2017-02-11T08:06:33.465Z,1.39
2017-02-11T08:07:33.403Z,1.36
2017-02-11T08:08:33.382Z,1.37
2017-02-11T08:09:33.362Z,1.42
2017-02-11T08:10:33.336Z,1.4
2017-02-11T08:11:33.309Z,1.42
2017-02-11T08:12:33.305Z,1.43
2017-02-11T08:13:33.275Z,1.47
2017-02-11T08:14:33.245Z,1.5
2017-02-11T08:15:32.835Z,1.44
2017-02-11T08:16:33.202Z,1.51
2017-02-11T08:17:33.175Z,1.42
2017-02-11T08:18:33.179Z,1.5
2017-02-11T08:19:33.134Z,1.47
2017-02-11T08:20:32.712Z,1.46
2017-02-11T08:21:33.086Z,1.58
2017-02-11T08:22:33.270Z,1.55
2017-02-11T08:23:32.648Z,1.51
2017-02-11T08:24:33.016Z,1.58
2017-02-11T08:25:33.002Z,1.58
2017-02-11T08:26:32.972Z,1.62
2017-02-11T08:27:32.956Z,1.58
2017-02-11T08:28:32.981Z,1.6
2017-02-11T08:29:32.908Z,1.68
2017-02-11T08:30:32.934Z,1.61
2017-02-11T08:31:32.866Z,1.68
2017-02-11T08:32:32.448Z,1.68
2017-02-11T08:33:32.822Z,1.69
2017-02-11T08:34:32.797Z,1.71
2017-02-11T08:35:32.779Z,1.71
2017-02-11T08:36:32.754Z,1.65
2017-02-11T08:37:32.731Z,1.72
2017-02-11T08:38:32.703Z,1.75
2017-02-11T08:39:32.684Z,1.75
2017-02-11T08:40:32.268Z,1.73
2017-02-11T08:41:32.646Z,1.89
2017-02-11T08:42:32.615Z,1.85
2017-02-11T08:43:32.592Z,1.82
2017-02-11T08:44:32.571Z,1.83
2017-02-11T08:45:32.593Z,1.78
2017-02-11T08:46:32.531Z,1.82
2017-02-11T08:47:32.506Z,1.87
2017-02-11T08:48:32.089Z,1.83
2017-02-11T08:49:32.460Z,1.83
2017-02-11T08:50:32.439Z,1.85
2017-02-11T08:51:32.470Z,1.87
2017-02-11T08:52:32.403Z,1.85
2017-02-11T08:53:32.374Z,1.83
2017-02-11T08:54:32.351Z,1.9
2017-02-11T08:55:31.938Z,1.98
2017-02-11T08:56:32.307Z,1.93
2017-02-11T08:57:32.279Z,1.91
2017-02-11T08:58:32.287Z,1.97
2017-02-11T08:59:32.237Z,1.99
2017-02-11T09:00:32.218Z,2.04
2017-02-11T09:01:31.799Z,2.02
2017-02-11T09:02:32.166Z,2.02
2017-02-11T09:03:32.154Z,2.02
2017-02-11T09:04:32.127Z,2.08
2017-02-11T09:05:32.115Z,2.02
2017-02-11T09:06:32.083Z,2.15
2017-02-11T09:07:32.062Z,2.17
2017-02-11T09:08:32.047Z,2.16
2017-02-11T09:09:32.022Z,2.12
2017-02-11T09:10:32.001Z,2.12
2017-02-11T09:11:31.975Z,2.08
2017-02-11T09:12:31.951Z,2.09
2017-02-11T09:13:31.939Z,2.04
2017-02-11T09:14:31.910Z,2.08
2017-02-11T09:15:31.889Z,2.04
2017-02-11T09:16:31.864Z,2.16
2017-02-11T09:17:31.897Z,2.08
2017-02-11T09:18:31.824Z,2.06
2017-02-11T09:19:31.402Z,2.04
2017-02-11T09:20:31.778Z,2.06
2017-02-11T09:21:31.760Z,2.22
2017-02-11T09:22:31.732Z,2.17
2017-02-11T09:23:31.711Z,2.1
2017-02-11T09:24:31.689Z,2.09
2017-02-11T09:25:31.682Z,2.13
2017-02-11T09:26:31.652Z,2.26
2017-02-11T09:27:31.625Z,2.15
2017-02-11T09:28:31.604Z,2.15
2017-02-11T09:29:31.581Z,2.2
2017-02-11T09:30:31.562Z,2.2
2017-02-11T09:31:31.544Z,2.16
2017-02-11T09:32:31.520Z,2.26
2017-02-11T09:33:31.493Z,2.28
2017-02-11T09:34:31.470Z,2.27
2017-02-11T09:35:31.455Z,2.35
2017-02-11T09:36:31.431Z,2.35
2017-02-11T09:37:31.405Z,2.45
2017-02-11T09:38:31.384Z,2.48
2017-02-11T09:39:31.363Z,2.46
2017-02-11T09:40:30.942Z,2.44
2017-02-11T09:41:31.322Z,2.46
2017-02-11T09:42:31.298Z,2.51
2017-02-11T09:43:31.276Z,2.46
2017-02-11T09:44:31.280Z,2.34
2017-02-11T09:45:31.233Z,2.44
2017-02-11T09:46:31.214Z,2.37
2017-02-11T09:47:31.194Z,2.4
2017-02-11T09:48:31.165Z,2.37
2017-02-11T09:49:31.147Z,2.31
2017-02-11T09:50:31.129Z,2.34
2017-02-11T09:51:31.154Z,2.34
2017-02-11T09:52:30.688Z,2.34
2017-02-11T09:53:31.062Z,2.33
2017-02-11T09:54:31.043Z,2.31
2017-02-11T09:55:30.619Z,2.31
2017-02-11T09:56:30.995Z,2.23
2017-02-11T09:57:30.983Z,2.3
2017-02-11T09:58:30.957Z,2.31
2017-02-11T09:59:58.959Z,2.3
2017-02-11T10:00:30.912Z,2.19
2017-02-11T10:01:30.889Z,2.2
2017-02-11T10:02:30.869Z,2.15
2017-02-11T10:03:30.871Z,2.2
2017-02-11T10:04:30.821Z,2.22
2017-02-11T10:05:30.405Z,2.15
2017-02-11T10:06:30.778Z,2.22
2017-02-11T10:07:30.408Z,2.16
2017-02-11T10:08:30.345Z,2.19
2017-02-11T10:09:30.714Z,2.13
2017-02-11T10:10:30.695Z,2.19
2017-02-11T10:11:30.272Z,2.12
2017-02-11T10:12:30.252Z,2.23
2017-02-11T10:13:30.629Z,2.26
2017-02-11T10:14:30.607Z,2.22
2017-02-11T10:15:30.583Z,2.33
2017-02-11T10:16:30.566Z,2.28
2017-02-11T10:17:30.544Z,2.33
2017-02-11T10:18:30.551Z,2.28
2017-02-11T10:19:30.512Z,2.19
2017-02-11T10:20:30.480Z,2.19
2017-02-11T10:21:30.450Z,2.2
2017-02-11T10:22:30.632Z,2.15
2017-02-11T10:23:30.013Z,2.16
2017-02-11T10:24:30.387Z,2.15
2017-02-11T10:25:29.968Z,2.1
2017-02-11T10:26:30.347Z,2.16
2017-02-11T10:27:30.328Z,2.13
2017-02-11T10:28:29.956Z,2.13
2017-02-11T10:29:30.283Z,2.12
2017-02-11T10:30:30.257Z,2.1
2017-02-11T10:31:30.234Z,2.1
2017-02-11T10:32:30.217Z,2.02
2017-02-11T10:33:30.193Z,2.04
2017-02-11T10:34:30.176Z,2.04
2017-02-11T10:35:30.149Z,1.99
2017-02-11T10:36:30.131Z,1.94
2017-02-11T10:37:30.111Z,1.94
2017-02-11T10:38:30.086Z,1.97
2017-02-11T10:39:30.063Z,1.99
2017-02-11T10:40:30.053Z,1.97
2017-02-11T10:41:59.000Z,1.93
2017-02-11T10:42:30.003Z,2.01
2017-02-11T10:43:29.586Z,2.01
2017-02-11T10:44:29.562Z,1.99
2017-02-11T10:45:29.933Z,1.94
2017-02-11T10:46:29.910Z,2.02
2017-02-11T10:47:29.888Z,2.1
2017-02-11T10:48:29.879Z,2.12
2017-02-11T10:49:29.901Z,2.15
2017-02-11T10:50:29.838Z,2.15
2017-02-11T10:51:29.799Z,2.17
2017-02-11T10:52:29.780Z,2.22
2017-02-11T10:53:29.754Z,2.15
2017-02-11T10:54:29.342Z,2.26
2017-02-11T10:55:29.722Z,2.33
2017-02-11T10:56:29.697Z,2.27
2017-02-11T10:57:29.673Z,2.26
2017-02-11T10:58:29.651Z,2.28
2017-02-11T10:59:29.631Z,2.35
2017-02-11T11:00:29.212Z,2.38
2017-02-11T11:01:29.605Z,2.33
2017-02-11T11:02:29.567Z,2.4
2017-02-11T11:03:29.544Z,2.49
2017-02-11T11:04:29.518Z,2.41
2017-02-11T11:05:29.143Z,2.49
2017-02-11T11:06:29.477Z,2.53
2017-02-11T11:07:29.454Z,2.55
2017-02-11T11:08:29.483Z,2.56
2017-02-11T11:09:29.022Z,2.69
2017-02-11T11:10:29.403Z,2.66
2017-02-11T11:11:29.372Z,2.64
2017-02-11T11:12:29.354Z,2.63
2017-02-11T11:13:29.331Z,2.74
2017-02-11T11:14:29.313Z,2.74
2017-02-11T11:15:29.290Z,2.81
2017-02-11T11:16:29.268Z,2.61
2017-02-11T11:17:29.246Z,2.69
2017-02-11T11:18:29.225Z,2.73
2017-02-11T11:19:29.204Z,2.64
2017-02-11T11:20:29.185Z,2.66
2017-02-11T11:21:29.164Z,2.81
2017-02-11T11:22:29.146Z,2.73
2017-02-11T11:23:29.122Z,2.73
2017-02-11T11:24:29.105Z,2.85
2017-02-11T11:25:29.106Z,2.82
2017-02-11T11:26:29.065Z,2.95
2017-02-11T11:27:28.644Z,2.91
2017-02-11T11:28:29.030Z,2.92
2017-02-11T11:29:28.600Z,2.97
2017-02-11T11:30:28.583Z,3.03
2017-02-11T11:31:28.567Z,2.97
2017-02-11T11:32:28.592Z,2.94
2017-02-11T11:33:28.922Z,3.06
2017-02-11T11:34:28.895Z,3.16
2017-02-11T11:35:28.488Z,3.13
2017-02-11T11:36:28.471Z,3.25
2017-02-11T11:37:28.856Z,3.21
2017-02-11T11:38:28.846Z,3.28
2017-02-11T11:39:28.815Z,3.25
2017-02-11T11:40:28.778Z,3.4
2017-02-11T11:41:28.754Z,3.43
2017-02-11T11:42:28.730Z,3.49
2017-02-11T11:43:28.721Z,3.53
2017-02-11T11:44:28.745Z,3.58
2017-02-11T11:45:28.681Z,3.67
2017-02-11T11:46:28.704Z,3.76
2017-02-11T11:47:28.630Z,3.82
2017-02-11T11:48:28.234Z,3.75
2017-02-11T11:49:28.601Z,3.86
2017-02-11T11:50:28.571Z,3.89
2017-02-11T11:51:28.159Z,3.94
2017-02-11T11:52:28.141Z,4.06
2017-02-11T11:53:28.545Z,4.06
2017-02-11T11:54:28.114Z,3.98
2017-02-11T11:55:28.493Z,4.07
2017-02-11T11:56:28.455Z,4.1
2017-02-11T11:57:28.446Z,4.12
2017-02-11T11:58:28.422Z,4.12
2017-02-11T11:59:28.400Z,4.06
2017-02-11T12:00:28.381Z,4.06
2017-02-11T12:01:27.971Z,4.07
2017-02-11T12:02:27.948Z,4.06
2017-02-11T12:03:28.325Z,4
2017-02-11T12:04:27.917Z,4
2017-02-11T12:05:27.887Z,3.9
2017-02-11T12:06:28.272Z,3.89
2017-02-11T12:07:28.246Z,3.94
2017-02-11T12:08:28.234Z,3.88
2017-02-11T12:09:28.224Z,3.88
2017-02-11T12:10:28.192Z,3.82
2017-02-11T12:11:28.204Z,3.78
2017-02-11T12:12:28.157Z,3.82
2017-02-11T12:13:28.139Z,3.75
2017-02-11T12:14:28.111Z,3.7
2017-02-11T12:15:28.101Z,3.67
2017-02-11T12:16:28.075Z,3.62
2017-02-11T12:17:28.050Z,3.72
2017-02-11T12:18:27.638Z,3.72
2017-02-11T12:19:28.016Z,3.65
2017-02-11T12:20:27.999Z,3.72
2017-02-11T12:21:27.977Z,3.7
2017-02-11T12:22:28.161Z,3.78
2017-02-11T12:23:27.951Z,3.71
2017-02-11T12:24:27.920Z,3.79
2017-02-11T12:25:27.897Z,3.78
2017-02-11T12:26:27.482Z,3.85
2017-02-11T12:27:27.861Z,3.8
2017-02-11T12:28:27.854Z,3.83
2017-02-11T12:29:27.822Z,3.98
2017-02-11T12:30:27.402Z,4.03
2017-02-11T12:31:27.783Z,4.04
2017-02-11T12:32:27.758Z,4.1
2017-02-11T12:33:27.748Z,4.06
2017-02-11T12:34:27.721Z,4.15
2017-02-11T12:35:27.701Z,4.19
2017-02-11T12:36:27.685Z,4.24
2017-02-11T12:37:27.659Z,4.26
2017-02-11T12:38:27.647Z,4.33
2017-02-11T12:39:27.225Z,4.33
2017-02-11T12:40:27.213Z,4.42
2017-02-11T12:41:27.632Z,4.52
2017-02-11T12:42:27.566Z,4.54
2017-02-11T12:43:27.548Z,4.61
2017-02-11T12:44:27.525Z,4.69
2017-02-11T12:45:27.512Z,4.75
2017-02-11T12:46:27.500Z,4.72
2017-02-11T12:47:27.474Z,4.84
2017-02-11T12:48:27.054Z,4.83
2017-02-11T12:49:27.434Z,4.76
2017-02-11T12:50:27.014Z,4.91
2017-02-11T12:51:27.021Z,4.94
2017-02-11T12:52:27.376Z,4.92
2017-02-11T12:53:27.371Z,5.09
2017-02-11T12:54:27.338Z,5.16
2017-02-11T12:55:27.322Z,5.32
2017-02-11T12:56:27.302Z,5.49
2017-02-11T12:57:27.281Z,5.56
2017-02-11T12:58:27.271Z,5.64
2017-02-11T12:59:27.242Z,5.59
2017-02-11T13:00:27.233Z,5.71
2017-02-11T13:01:26.812Z,5.78
2017-02-11T13:02:27.198Z,5.75
2017-02-11T13:03:27.180Z,5.92
2017-02-11T13:04:27.160Z,6.03
2017-02-11T13:05:27.146Z,5.91
2017-02-11T13:06:26.732Z,5.82
2017-02-11T13:07:27.132Z,5.98
2017-02-11T13:08:26.697Z,5.93
2017-02-11T13:09:27.084Z,5.95
2017-02-11T13:10:27.053Z,5.98
2017-02-11T13:11:27.038Z,6
2017-02-11T13:12:27.055Z,6.1
2017-02-11T13:13:27.026Z,6.11
2017-02-11T13:14:26.992Z,6.1
2017-02-11T13:15:26.988Z,6.11
2017-02-11T13:16:26.962Z,6.26
2017-02-11T13:17:26.556Z,6.18
2017-02-11T13:18:26.930Z,6.16
2017-02-11T13:19:26.906Z,6.16
2017-02-11T13:20:26.905Z,6.29
2017-02-11T13:21:26.491Z,6.89